Time;durP1;ratioP1;P1;durP2;ratioP2;P2;SDS_P1;SDS_P2;PMS_P1;PMS_P2;Temp;Humidity;BMP_temperature;BMP_pressure;BME280_temperature;BME280_humidity;BME280_pressure;Samples;Min_cycle;Max_cycle;Signal;HPM_P1;HPM_P2
2022/03/12 00:01:24;;;;;;;28.23;21.50;;;9.80;43.30;;;;;;4988495;28;20490;-74
2022/03/12 00:03:54;;;;;;;26.87;22.73;;;9.90;43.60;;;;;;5005249;28;20553;-75
2022/03/12 00:06:21;;;;;;;23.87;20.33;;;9.90;43.10;;;;;;5005583;28;20474;-74
2022/03/12 00:08:51;;;;;;;26.47;21.37;;;9.90;43.00;;;;;;5007063;28;20553;-75
2022/03/12 00:11:19;;;;;;;24.03;21.73;;;9.90;43.10;;;;;;4998636;28;20469;-74
2022/03/12 00:13:47;;;;;;;25.50;22.83;;;9.90;43.20;;;;;;5004396;28;20576;-72
2022/03/12 00:16:22;;;;;;;29.50;22.00;;;9.90;43.00;;;;;;5004571;28;20469;-73
2022/03/12 00:18:52;;;;;;;27.53;21.77;;;9.80;42.80;;;;;;5006295;28;20465;-73
2022/03/12 00:21:22;;;;;;;28.70;21.07;;;9.80;43.00;;;;;;5000820;28;20826;-74
2022/03/12 00:23:50;;;;;;;28.50;21.63;;;9.80;43.00;;;;;;5004979;28;20550;-73
2022/03/12 00:26:18;;;;;;;24.63;22.13;;;9.80;43.10;;;;;;5008156;28;20460;-72
2022/03/12 00:28:45;;;;;;;33.77;22.20;;;9.80;43.00;;;;;;5002190;28;21020;-73
2022/03/12 00:31:13;;;;;;;22.77;20.47;;;9.80;43.20;;;;;;4997553;28;20472;-74
2022/03/12 00:33:40;;;;;;;21.73;19.60;;;9.80;42.70;;;;;;5002518;28;20477;-73
2022/03/12 00:36:08;;;;;;;22.83;20.73;;;9.80;42.70;;;;;;4996344;28;20489;-74
2022/03/12 00:38:36;;;;;;;27.47;21.77;;;9.80;42.80;;;;;;5000327;28;22575;-74
2022/03/12 00:41:07;;;;;;;24.50;20.20;;;9.80;42.70;;;;;;5007265;28;20457;-74
2022/03/12 00:43:34;;;;;;;24.10;21.80;;;9.80;43.00;;;;;;5006088;28;20519;-72
2022/03/12 00:46:01;;;;;;;28.70;20.97;;;9.70;42.90;;;;;;5003886;28;20476;-76
2022/03/12 00:48:31;;;;;;;23.67;21.07;;;9.70;43.00;;;;;;5001043;28;20468;-75
2022/03/12 00:50:58;;;;;;;25.03;21.47;;;9.70;43.00;;;;;;5001853;28;20458;-74
2022/03/12 00:53:26;;;;;;;22.43;20.20;;;9.80;43.60;;;;;;4997290;28;20489;-74
2022/03/12 00:55:53;;;;;;;27.93;20.67;;;9.70;42.90;;;;;;5001575;28;20651;-75
2022/03/12 00:58:22;;;;;;;29.37;21.80;;;9.70;43.00;;;;;;4996383;28;20484;-74
2022/03/12 01:00:49;;;;;;;23.87;21.33;;;9.70;43.20;;;;;;5000840;28;20462;-72
2022/03/12 01:03:16;;;;;;;23.57;20.67;;;9.70;43.10;;;;;;5002735;28;20503;-73
2022/03/12 01:05:53;;;;;;;22.10;20.07;;;9.70;43.40;;;;;;5002561;28;20467;-75
2022/03/12 01:08:23;;;;;;;22.73;20.77;;;9.70;43.60;;;;;;5001870;28;20463;-73
2022/03/12 01:10:50;;;;;;;22.77;20.57;;;9.70;43.60;;;;;;4999071;28;20944;-74
2022/03/12 01:13:18;;;;;;;30.83;21.93;;;9.70;43.50;;;;;;5003706;28;20462;-75
2022/03/12 01:15:46;;;;;;;33.43;21.17;;;9.60;43.40;;;;;;5003478;28;20461;-75
2022/03/12 01:18:15;;;;;;;24.83;22.43;;;9.60;43.90;;;;;;4996724;28;20477;-73
2022/03/12 01:20:43;;;;;;;24.43;20.60;;;9.60;44.20;;;;;;4999940;28;20484;-73
2022/03/12 01:23:13;;;;;;;32.83;22.17;;;9.70;44.40;;;;;;4998855;28;20507;-74
2022/03/12 01:25:41;;;;;;;30.50;21.67;;;9.60;44.40;;;;;;5000992;28;21139;-74
2022/03/12 01:28:09;;;;;;;26.57;20.90;;;9.60;44.60;;;;;;5001669;28;20530;-74
2022/03/12 01:30:37;;;;;;;23.60;21.17;;;9.60;44.80;;;;;;5001757;28;20961;-74
2022/03/12 01:33:05;;;;;;;29.33;21.00;;;9.60;44.90;;;;;;4995883;28;20459;-74
2022/03/12 01:35:33;;;;;;;32.13;21.97;;;9.50;45.30;;;;;;4996829;28;20465;-74
2022/03/12 01:38:01;;;;;;;26.67;21.33;;;9.60;45.60;;;;;;5004686;28;20498;-75
2022/03/12 01:40:29;;;;;;;30.97;22.00;;;9.60;45.60;;;;;;4999499;28;20473;-73
2022/03/12 01:42:57;;;;;;;31.83;22.70;;;9.50;45.70;;;;;;5000978;28;21051;-74
2022/03/12 01:45:28;;;;;;;28.47;22.10;;;9.50;46.00;;;;;;5001922;28;20477;-74
2022/03/12 01:47:56;;;;;;;38.43;22.80;;;9.50;46.10;;;;;;4998661;28;20479;-73
2022/03/12 01:50:26;;;;;;;34.90;23.20;;;9.50;47.40;;;;;;4998088;28;20953;-73
2022/03/12 01:52:58;;;;;;;36.40;22.33;;;9.50;48.90;;;;;;5002285;28;20971;-75
2022/03/12 01:55:27;;;;;;;25.63;22.70;;;9.50;49.00;;;;;;5001106;28;20474;-74
2022/03/12 01:57:55;;;;;;;25.43;21.73;;;9.40;48.60;;;;;;4997444;28;20490;-74
2022/03/12 02:00:27;;;;;;;24.07;21.57;;;9.40;48.20;;;;;;4999238;28;20467;-75
2022/03/12 02:02:54;;;;;;;30.13;23.70;;;9.30;48.20;;;;;;4996828;28;20561;-75
2022/03/12 02:05:27;;;;;;;25.83;22.57;;;9.30;49.40;;;;;;5003543;28;20522;-74
2022/03/12 02:07:58;;;;;;;29.20;25.60;;;9.30;49.80;;;;;;4995785;28;20465;-73
2022/03/12 02:10:25;;;;;;;28.07;23.90;;;9.20;52.30;;;;;;5000916;28;20472;-72
2022/03/12 02:12:52;;;;;;;47.77;24.53;;;9.00;53.30;;;;;;4999340;28;20479;-71
2022/03/12 02:15:22;;;;;;;31.63;24.83;;;8.90;55.50;;;;;;4999500;28;20471;-74
2022/03/12 02:17:50;;;;;;;32.13;26.10;;;8.80;55.60;;;;;;4997779;28;20472;-70
2022/03/12 02:20:19;;;;;;;29.50;25.10;;;8.60;56.60;;;;;;5003590;28;20923;-72
2022/03/12 02:22:53;;;;;;;27.27;24.57;;;8.60;56.80;;;;;;4998762;28;20493;-71
2022/03/12 02:25:28;;;;;;;29.10;23.70;;;8.50;56.80;;;;;;4997550;28;20474;-72
2022/03/12 02:27:56;;;;;;;26.80;22.70;;;8.40;57.90;;;;;;4994513;28;20872;-75
2022/03/12 02:30:31;;;;;;;23.90;21.57;;;8.40;55.90;;;;;;5001875;28;20608;-71
2022/03/12 02:33:00;;;;;;;29.63;22.27;;;8.40;55.80;;;;;;4999541;28;21033;-71
2022/03/12 02:35:27;;;;;;;23.87;21.60;;;8.30;57.00;;;;;;4997442;28;20561;-71
2022/03/12 02:37:54;;;;;;;26.03;21.77;;;8.30;58.00;;;;;;5001094;28;20517;-71
2022/03/12 02:40:22;;;;;;;34.67;22.60;;;8.30;57.90;;;;;;5002939;28;20475;-71
2022/03/12 02:42:51;;;;;;;40.73;23.10;;;8.30;58.20;;;;;;5001053;28;20504;-71
2022/03/12 02:45:19;;;;;;;34.53;23.40;;;8.30;58.80;;;;;;4996300;28;20472;-70
2022/03/12 02:47:48;;;;;;;50.53;23.77;;;8.20;58.90;;;;;;5000771;28;21109;-75
2022/03/12 02:50:15;;;;;;;23.10;20.73;;;8.20;59.50;;;;;;4994234;28;20489;-74
2022/03/12 02:52:44;;;;;;;36.67;22.60;;;8.20;58.60;;;;;;5002928;28;20473;-71
2022/03/12 02:55:13;;;;;;;26.70;23.77;;;8.30;58.50;;;;;;5004153;28;20466;-71
2022/03/12 02:57:42;;;;;;;25.50;21.80;;;8.30;57.70;;;;;;4994322;28;20489;-74
2022/03/12 03:00:11;;;;;;;34.37;22.20;;;8.40;57.30;;;;;;4993972;28;20474;-74
2022/03/12 03:02:41;;;;;;;24.47;21.90;;;8.40;57.20;;;;;;5001669;28;20551;-71
2022/03/12 03:05:15;;;;;;;25.07;22.60;;;8.40;56.90;;;;;;5001772;28;20551;-75
2022/03/12 03:07:42;;;;;;;25.27;22.60;;;8.40;56.10;;;;;;4995213;28;20457;-72
2022/03/12 03:10:10;;;;;;;28.23;21.80;;;8.50;55.80;;;;;;4998839;28;20468;-72
2022/03/12 03:12:38;;;;;;;25.10;21.43;;;8.50;54.90;;;;;;4993687;28;21027;-71
2022/03/12 03:15:07;;;;;;;30.97;20.87;;;8.60;54.20;;;;;;4997361;28;20581;-70
2022/03/12 03:17:35;;;;;;;26.60;21.70;;;8.60;53.90;;;;;;5002556;28;20466;-71
2022/03/12 03:20:02;;;;;;;23.87;21.77;;;8.60;53.60;;;;;;5000741;28;20461;-71
2022/03/12 03:22:29;;;;;;;25.03;21.73;;;8.60;53.70;;;;;;5000990;28;21321;-71
2022/03/12 03:24:57;;;;;;;23.63;21.33;;;8.60;53.70;;;;;;4998561;28;20589;-71
2022/03/12 03:27:23;;;;;;;23.17;21.10;;;8.60;53.70;;;;;;4999262;28;20466;-70
2022/03/12 03:29:50;;;;;;;24.53;22.23;;;8.60;53.90;;;;;;5002045;28;20485;-72
2022/03/12 03:32:19;;;;;;;24.17;22.00;;;8.70;54.20;;;;;;4996496;28;20482;-73
2022/03/12 03:34:45;;;;;;;23.67;21.57;;;8.70;54.20;;;;;;4995535;28;20473;-70
2022/03/12 03:37:12;;;;;;;27.80;22.37;;;8.60;53.70;;;;;;5002872;28;20492;-70
2022/03/12 03:39:40;;;;;;;25.53;21.23;;;8.60;53.60;;;;;;4999387;28;20468;-69
2022/03/12 03:42:07;;;;;;;22.73;20.80;;;8.70;53.80;;;;;;4997993;28;20501;-73
2022/03/12 03:44:35;;;;;;;24.60;20.77;;;8.70;53.90;;;;;;4998491;28;20464;-72
2022/03/12 03:47:02;;;;;;;35.93;22.93;;;8.70;53.60;;;;;;4994004;28;20475;-71
2022/03/12 03:49:30;;;;;;;24.20;21.73;;;8.70;54.00;;;;;;4998278;28;20488;-71
2022/03/12 03:51:58;;;;;;;26.07;20.83;;;8.70;53.80;;;;;;4997343;28;20859;-72
2022/03/12 03:54:28;;;;;;;24.33;19.43;;;8.60;53.80;;;;;;5002501;28;20485;-70
2022/03/12 03:56:55;;;;;;;24.63;21.50;;;8.60;53.80;;;;;;4997072;28;20839;-70
2022/03/12 03:59:21;;;;;;;24.07;21.50;;;8.60;54.00;;;;;;4998635;28;20833;-72
2022/03/12 04:01:49;;;;;;;26.50;21.53;;;8.60;54.30;;;;;;5003714;28;20466;-71
2022/03/12 04:04:17;;;;;;;31.83;21.70;;;8.60;54.40;;;;;;4999281;28;20490;-72
2022/03/12 04:06:45;;;;;;;23.03;20.60;;;8.60;54.60;;;;;;4996856;28;20591;-71
2022/03/12 04:09:12;;;;;;;26.87;22.67;;;8.60;54.40;;;;;;5004653;28;20899;-71
2022/03/12 04:11:39;;;;;;;24.63;22.10;;;8.60;54.80;;;;;;4999023;28;20548;-71
2022/03/12 04:14:06;;;;;;;29.60;22.17;;;8.50;54.80;;;;;;4998815;28;20501;-73
2022/03/12 04:16:34;;;;;;;24.33;21.80;;;8.50;54.50;;;;;;5004680;28;20468;-70
2022/03/12 04:19:06;;;;;;;23.53;21.10;;;8.40;54.20;;;;;;5000774;28;21324;-71
2022/03/12 04:21:33;;;;;;;24.43;21.03;;;8.40;54.20;;;;;;5002033;28;20492;-71
2022/03/12 04:24:02;;;;;;;26.30;21.07;;;8.30;54.40;;;;;;5000469;28;20500;-73
2022/03/12 04:26:30;;;;;;;23.77;21.20;;;8.30;54.50;;;;;;5001991;28;20470;-72
2022/03/12 04:28:58;;;;;;;21.87;19.77;;;8.20;54.50;;;;;;5005484;28;20477;-71
2022/03/12 04:31:24;;;;;;;23.17;20.83;;;8.10;54.80;;;;;;5000741;28;20560;-71
2022/03/12 04:33:52;;;;;;;23.10;20.70;;;8.10;55.00;;;;;;5004381;28;20464;-71
2022/03/12 04:36:19;;;;;;;23.73;21.33;;;8.10;55.10;;;;;;4998812;28;20527;-73
2022/03/12 04:38:48;;;;;;;33.13;22.77;;;8.10;55.20;;;;;;4998670;28;20472;-72
2022/03/12 04:41:34;;;;;;;21.93;20.00;;;8.00;55.40;;;;;;5000640;28;20469;-70
2022/03/12 04:44:06;;;;;;;22.63;20.70;;;8.00;55.90;;;;;;4996913;28;21063;-74
2022/03/12 04:46:33;;;;;;;30.93;22.60;;;7.90;56.40;;;;;;5005652;28;20960;-75
2022/03/12 04:49:00;;;;;;;24.13;21.70;;;7.80;56.90;;;;;;4999462;28;21181;-73
2022/03/12 04:51:28;;;;;;;36.00;21.10;;;7.70;57.10;;;;;;5001421;28;20472;-71
2022/03/12 04:53:57;;;;;;;28.43;22.67;;;7.60;57.30;;;;;;5001493;28;20480;-73
2022/03/12 04:56:25;;;;;;;23.87;21.50;;;7.50;57.80;;;;;;4999936;28;20470;-70
2022/03/12 04:58:54;;;;;;;33.20;21.60;;;7.40;58.00;;;;;;4998929;28;20479;-70
2022/03/12 05:01:21;;;;;;;25.60;21.33;;;7.40;58.40;;;;;;5010311;28;20467;-71
2022/03/12 05:03:48;;;;;;;31.20;22.00;;;7.30;58.80;;;;;;4972945;28;21102;-71
2022/03/12 05:06:19;;;;;;;30.10;22.60;;;7.30;59.50;;;;;;4971326;28;20467;-72
2022/03/12 05:08:46;;;;;;;29.83;22.00;;;7.30;59.80;;;;;;4970920;28;20474;-70
2022/03/12 05:11:13;;;;;;;26.87;22.13;;;7.30;60.30;;;;;;4970402;28;20490;-72
2022/03/12 05:13:40;;;;;;;26.40;21.40;;;7.20;60.50;;;;;;4970551;28;20596;-73
2022/03/12 05:16:09;;;;;;;21.90;20.27;;;7.20;60.70;;;;;;4972370;28;20478;-72
2022/03/12 05:18:38;;;;;;;24.33;21.77;;;7.20;60.90;;;;;;4970166;28;20546;-72
2022/03/12 05:21:06;;;;;;;44.80;22.03;;;7.20;61.00;;;;;;4970777;28;20466;-70
2022/03/12 05:23:33;;;;;;;31.90;22.43;;;7.10;61.10;;;;;;4971350;28;20523;-70
2022/03/12 05:26:00;;;;;;;35.77;21.90;;;7.20;61.90;;;;;;4972019;28;20462;-72
2022/03/12 05:28:31;;;;;;;24.90;22.40;;;7.10;62.20;;;;;;4971385;28;20498;-73
2022/03/12 05:30:59;;;;;;;30.10;21.13;;;7.10;62.30;;;;;;4971231;28;20459;-72
2022/03/12 05:33:28;;;;;;;36.20;22.60;;;7.10;62.30;;;;;;4970278;28;20465;-72
2022/03/12 05:35:56;;;;;;;23.47;21.47;;;7.00;62.40;;;;;;4970690;28;20463;-71
2022/03/12 05:38:24;;;;;;;31.57;22.87;;;7.00;62.60;;;;;;4971000;28;21147;-71
2022/03/12 05:40:52;;;;;;;35.20;21.50;;;7.00;62.90;;;;;;4971481;28;20931;-71
2022/03/12 05:43:19;;;;;;;26.83;21.00;;;6.90;63.60;;;;;;4970312;28;20587;-72
2022/03/12 05:45:48;;;;;;;38.20;22.33;;;6.90;65.00;;;;;;4971632;28;20472;-71
2022/03/12 05:48:17;;;;;;;24.63;21.97;;;6.80;65.70;;;;;;4970328;28;20470;-72
2022/03/12 05:50:48;;;;;;;28.30;22.60;;;6.80;66.70;;;;;;4970270;28;20822;-71
2022/03/12 05:53:18;;;;;;;22.57;20.60;;;6.80;67.50;;;;;;4971416;28;20499;-73
2022/03/12 05:55:47;;;;;;;41.53;22.83;;;6.80;68.70;;;;;;4970213;28;20472;-71
2022/03/12 05:58:17;;;;;;;24.40;20.77;;;6.80;70.30;;;;;;4971345;28;20931;-72
2022/03/12 06:00:44;;;;;;;28.50;22.33;;;6.80;71.30;;;;;;4969908;28;21249;-72
2022/03/12 06:03:11;;;;;;;36.33;23.00;;;6.80;72.90;;;;;;4970026;28;20498;-72
2022/03/12 06:05:41;;;;;;;26.33;22.17;;;6.80;73.10;;;;;;4970940;28;20451;-70
2022/03/12 06:08:13;;;;;;;37.57;22.40;;;6.90;74.10;;;;;;4970591;28;20466;-70
2022/03/12 06:10:42;;;;;;;36.77;21.30;;;6.90;74.30;;;;;;4969195;28;20499;-71
2022/03/12 06:13:11;;;;;;;30.00;21.73;;;6.90;75.30;;;;;;4970670;28;21252;-71
2022/03/12 06:15:39;;;;;;;22.97;20.80;;;6.90;76.60;;;;;;4970421;28;20524;-73
2022/03/12 06:18:07;;;;;;;23.20;21.13;;;6.90;78.10;;;;;;4970197;28;21639;-72
2022/03/12 06:20:37;;;;;;;29.20;22.13;;;7.00;78.60;;;;;;4970993;28;20932;-74
2022/03/12 06:23:04;;;;;;;24.73;22.23;;;7.00;79.10;;;;;;4970876;28;20848;-72
2022/03/12 06:25:33;;;;;;;26.90;21.70;;;7.00;80.00;;;;;;4970295;28;21079;-72
2022/03/12 06:28:00;;;;;;;35.67;22.77;;;7.10;81.20;;;;;;4971721;28;20477;-71
2022/03/12 06:30:28;;;;;;;40.67;22.63;;;7.10;81.70;;;;;;4968950;28;20456;-71
2022/03/12 06:32:57;;;;;;;25.97;23.20;;;7.10;83.60;;;;;;4970323;28;20876;-71
2022/03/12 06:35:26;;;;;;;24.43;21.90;;;7.20;86.20;;;;;;4969619;28;20482;-72
2022/03/12 06:37:53;;;;;;;33.63;22.80;;;7.30;89.60;;;;;;4970247;28;20588;-71
2022/03/12 06:40:21;;;;;;;25.37;21.67;;;7.40;90.70;;;;;;4986449;28;20570;-71
2022/03/12 06:42:56;;;;;;;27.70;24.17;;;7.50;92.40;;;;;;4991145;28;20454;-72
2022/03/12 06:45:24;;;;;;;33.07;23.70;;;7.60;94.20;;;;;;5000650;28;20474;-71
2022/03/12 06:47:51;;;;;;;27.13;21.60;;;7.70;95.00;;;;;;4974861;28;20476;-71
2022/03/12 06:50:23;;;;;;;22.50;20.23;;;7.80;96.00;;;;;;4966544;28;20565;-70
2022/03/12 06:52:51;;;;;;;25.40;22.17;;;7.90;97.50;;;;;;4968077;28;21531;-72
2022/03/12 06:55:20;;;;;;;34.63;22.00;;;8.10;98.40;;;;;;4967344;28;20464;-72
2022/03/12 06:57:47;;;;;;;23.80;21.80;;;8.10;99.40;;;;;;4967947;28;20599;-74
2022/03/12 07:00:18;;;;;;;23.97;21.50;;;8.20;99.90;;;;;;4966663;28;20469;-71
2022/03/12 07:02:45;;;;;;;22.97;20.97;;;8.30;99.90;;;;;;4965495;28;20884;-74
2022/03/12 07:05:12;;;;;;;24.80;22.50;;;8.40;99.90;;;;;;4967976;28;20497;-71
2022/03/12 07:07:42;;;;;;;26.67;22.57;;;8.60;99.90;;;;;;4968428;28;20466;-71
2022/03/12 07:10:10;;;;;;;25.83;23.10;;;8.60;99.90;;;;;;4968397;28;20478;-71
2022/03/12 07:12:37;;;;;;;28.90;22.37;;;8.70;99.90;;;;;;4966755;28;20474;-71
2022/03/12 07:15:08;;;;;;;34.70;22.97;;;8.80;99.90;;;;;;4968083;28;20490;-73
2022/03/12 07:17:36;;;;;;;24.60;22.10;;;8.80;99.90;;;;;;4967168;28;21257;-72
2022/03/12 07:20:05;;;;;;;26.63;23.97;;;8.80;99.90;;;;;;4966315;28;20476;-72
2022/03/12 07:22:33;;;;;;;27.43;23.47;;;8.90;99.90;;;;;;4968038;28;20465;-71
2022/03/12 07:24:59;;;;;;;26.53;23.80;;;9.00;99.90;;;;;;4968538;28;21609;-71
2022/03/12 07:27:26;;;;;;;23.30;21.27;;;9.10;99.90;;;;;;4967345;28;20469;-71
2022/03/12 07:29:53;;;;;;;24.80;22.33;;;9.20;99.90;;;;;;4968525;28;20490;-71
2022/03/12 07:32:21;;;;;;;24.53;22.07;;;9.30;99.90;;;;;;4967886;28;20991;-71
2022/03/12 07:34:49;;;;;;;27.30;24.60;;;9.50;99.90;;;;;;4966611;28;20527;-71
2022/03/12 07:37:16;;;;;;;24.53;22.30;;;9.50;99.90;;;;;;4966665;28;21001;-71
2022/03/12 07:39:46;;;;;;;29.10;22.97;;;9.60;99.90;;;;;;4958219;28;20561;-72
2022/03/12 07:42:12;;;;;;;24.23;22.30;;;9.70;99.90;;;;;;4961850;28;21030;-70
2022/03/12 07:44:40;;;;;;;25.07;22.93;;;9.90;99.90;;;;;;4964763;28;20898;-71
2022/03/12 07:47:07;;;;;;;22.77;20.67;;;10.10;99.90;;;;;;4964203;28;20467;-71
2022/03/12 07:49:34;;;;;;;23.40;21.60;;;10.20;99.90;;;;;;4965505;28;20520;-72
2022/03/12 07:52:03;;;;;;;22.50;20.77;;;10.50;99.90;;;;;;4971439;28;20612;-71
2022/03/12 07:54:30;;;;;;;26.73;21.57;;;10.70;99.90;;;;;;4996330;28;22878;-72
2022/03/12 07:56:57;;;;;;;24.73;22.13;;;10.80;99.90;;;;;;4995944;28;20462;-71
2022/03/12 07:59:25;;;;;;;24.87;22.67;;;10.90;99.90;;;;;;4975461;28;20488;-72
2022/03/12 08:01:52;;;;;;;23.40;21.33;;;11.20;99.90;;;;;;4996773;28;21049;-71
2022/03/12 08:04:19;;;;;;;31.83;20.30;;;11.30;99.90;;;;;;4992557;28;20499;-71
2022/03/12 08:06:48;;;;;;;23.00;21.03;;;11.50;99.90;;;;;;4991034;28;20941;-70
2022/03/12 08:09:16;;;;;;;23.47;21.13;;;11.70;99.90;;;;;;4966519;28;21918;-72
2022/03/12 08:11:43;;;;;;;22.30;20.60;;;11.90;99.90;;;;;;4967518;28;20900;-71
2022/03/12 08:14:15;;;;;;;22.60;20.70;;;12.00;99.90;;;;;;4969668;28;20466;-72
2022/03/12 08:16:44;;;;;;;22.20;20.40;;;12.10;99.90;;;;;;4965061;28;20848;-70
2022/03/12 08:19:11;;;;;;;22.77;21.00;;;12.30;99.90;;;;;;4966336;28;20568;-72
2022/03/12 08:21:38;;;;;;;22.13;20.53;;;12.40;99.90;;;;;;4965835;28;20915;-71
2022/03/12 08:24:06;;;;;;;23.73;21.37;;;12.40;99.90;;;;;;4966570;28;20972;-71
2022/03/12 08:26:35;;;;;;;22.13;20.33;;;12.70;99.90;;;;;;4965851;28;21222;-71
2022/03/12 08:29:02;;;;;;;23.07;21.20;;;12.80;99.90;;;;;;4965397;28;20581;-72
2022/03/12 08:31:29;;;;;;;21.83;20.00;;;13.10;99.90;;;;;;4966219;28;20458;-71
2022/03/12 08:33:55;;;;;;;22.80;20.83;;;13.10;99.90;;;;;;4966156;28;20569;-71
2022/03/12 08:36:22;;;;;;;22.27;20.77;;;13.10;99.90;;;;;;4966320;28;20462;-72
2022/03/12 08:38:49;;;;;;;23.90;22.00;;;13.20;99.90;;;;;;4966717;28;21603;-70
2022/03/12 08:41:16;;;;;;;21.83;20.20;;;13.50;99.90;;;;;;4966007;28;20759;-72
2022/03/12 08:43:44;;;;;;;21.23;19.73;;;13.60;99.90;;;;;;4965674;28;20465;-72
2022/03/12 08:46:11;;;;;;;20.00;18.60;;;13.70;99.90;;;;;;4966280;28;20478;-72
2022/03/12 08:48:39;;;;;;;20.97;19.57;;;13.70;99.90;;;;;;4965554;28;20987;-72
2022/03/12 08:51:07;;;;;;;22.80;21.10;;;13.60;99.90;;;;;;4965746;28;20599;-72
2022/03/12 08:53:34;;;;;;;21.60;20.17;;;13.70;99.90;;;;;;4965285;28;20477;-71
2022/03/12 08:56:02;;;;;;;21.43;20.00;;;13.80;99.90;;;;;;4966896;28;20467;-72
2022/03/12 08:58:29;;;;;;;20.93;19.33;;;13.90;99.90;;;;;;4965531;28;20472;-72
2022/03/12 09:00:59;;;;;;;23.00;21.40;;;13.90;99.90;;;;;;4965074;28;20470;-73
2022/03/12 09:03:26;;;;;;;22.57;20.83;;;14.00;99.90;;;;;;4965599;28;20483;-71
2022/03/12 09:05:54;;;;;;;21.23;19.73;;;14.10;99.90;;;;;;4987492;28;20528;-71
2022/03/12 09:08:36;;;;;;;21.60;19.90;;;14.30;99.90;;;;;;4997347;28;20553;-71
2022/03/12 09:11:03;;;;;;;22.07;20.63;;;14.40;99.90;;;;;;4995017;28;20459;-71
2022/03/12 09:13:31;;;;;;;21.80;20.07;;;14.30;99.90;;;;;;4967619;28;20490;-71
2022/03/12 09:15:59;;;;;;;20.90;19.50;;;14.40;99.90;;;;;;4965008;28;20474;-73
2022/03/12 09:18:26;;;;;;;20.73;19.10;;;14.60;99.90;;;;;;4965180;28;20917;-71
2022/03/12 09:20:53;;;;;;;20.00;18.70;;;14.70;99.90;;;;;;4963776;28;20465;-71
2022/03/12 09:23:22;;;;;;;21.37;19.90;;;14.60;99.90;;;;;;4964784;28;20478;-72
2022/03/12 09:25:50;;;;;;;20.03;18.73;;;14.60;99.90;;;;;;4964883;28;20498;-73
2022/03/12 09:28:18;;;;;;;20.17;18.57;;;14.50;99.90;;;;;;4965401;28;20467;-71
2022/03/12 09:30:50;;;;;;;20.90;19.30;;;14.60;99.90;;;;;;4967297;28;20482;-71
2022/03/12 09:33:20;;;;;;;19.00;17.90;;;14.70;99.90;;;;;;4966315;28;20920;-72
2022/03/12 09:35:46;;;;;;;19.70;18.50;;;14.50;99.90;;;;;;4966366;28;20552;-71
2022/03/12 09:38:14;;;;;;;20.03;18.70;;;14.90;99.90;;;;;;4965623;28;20512;-71
2022/03/12 09:40:42;;;;;;;19.47;18.10;;;15.00;99.90;;;;;;4966363;28;20470;-72
2022/03/12 09:43:09;;;;;;;19.73;18.43;;;15.00;99.90;;;;;;4966600;28;20952;-72
2022/03/12 09:45:36;;;;;;;17.80;16.80;;;15.00;99.90;;;;;;4965839;28;20501;-72
2022/03/12 09:48:03;;;;;;;18.73;17.47;;;15.30;99.90;;;;;;4966349;28;20466;-72
2022/03/12 09:50:32;;;;;;;18.73;17.43;;;15.40;99.90;;;;;;4966386;28;20634;-71
2022/03/12 09:52:59;;;;;;;18.50;17.27;;;15.50;99.20;;;;;;4965755;28;20450;-73
2022/03/12 09:55:26;;;;;;;18.30;17.00;;;15.50;98.90;;;;;;4966759;28;21076;-72
2022/03/12 09:57:53;;;;;;;18.13;16.93;;;15.50;99.20;;;;;;4964468;28;20458;-72
2022/03/12 10:00:21;;;;;;;19.23;17.50;;;15.70;98.60;;;;;;4978023;28;20484;-72
2022/03/12 10:02:48;;;;;;;19.57;18.30;;;15.50;98.40;;;;;;4998805;28;20464;-72
2022/03/12 10:05:15;;;;;;;18.40;17.10;;;15.70;98.30;;;;;;4991188;28;20501;-72
2022/03/12 10:07:44;;;;;;;17.80;16.50;;;15.90;97.60;;;;;;4963937;28;20467;-72
2022/03/12 10:10:15;;;;;;;18.17;16.67;;;16.30;97.20;;;;;;4964310;28;20797;-72
2022/03/12 10:12:42;;;;;;;17.80;16.60;;;16.90;96.50;;;;;;4964519;28;20827;-72
2022/03/12 10:15:11;;;;;;;17.90;16.80;;;17.30;95.40;;;;;;4965584;28;20473;-72
2022/03/12 10:17:38;;;;;;;18.33;16.93;;;18.30;93.50;;;;;;4963813;28;20844;-72
2022/03/12 10:20:06;;;;;;;16.43;15.20;;;18.50;92.60;;;;;;4964905;28;20482;-72
2022/03/12 10:22:33;;;;;;;17.63;15.97;;;18.30;91.10;;;;;;4964101;28;20462;-72
2022/03/12 10:25:01;;;;;;;17.43;16.33;;;17.90;91.60;;;;;;4964680;28;20506;-73
2022/03/12 10:27:28;;;;;;;16.93;15.80;;;17.90;91.40;;;;;;4964748;28;21046;-72
2022/03/12 10:29:55;;;;;;;17.60;16.60;;;17.90;90.90;;;;;;4964465;28;20482;-72
2022/03/12 10:32:24;;;;;;;17.87;16.60;;;17.80;90.60;;;;;;4962412;28;20580;-73
2022/03/12 10:34:53;;;;;;;17.70;16.40;;;17.50;91.00;;;;;;4965197;28;20472;-72
2022/03/12 10:37:21;;;;;;;16.90;15.70;;;17.80;91.10;;;;;;4964032;28;20576;-71
2022/03/12 10:39:49;;;;;;;16.80;15.80;;;18.20;90.60;;;;;;4963211;28;20532;-72
2022/03/12 10:42:18;;;;;;;16.07;15.07;;;18.20;89.10;;;;;;4964545;28;20473;-72
2022/03/12 10:44:44;;;;;;;16.23;15.33;;;18.10;89.20;;;;;;4964046;28;21072;-73
2022/03/12 10:47:19;;;;;;;17.00;15.80;;;18.10;90.00;;;;;;4964489;28;20842;-73
2022/03/12 10:49:56;;;;;;;16.20;15.30;;;18.00;88.70;;;;;;4963151;28;20469;-73
2022/03/12 10:52:23;;;;;;;16.73;15.10;;;17.80;89.00;;;;;;4962932;28;20474;-73
2022/03/12 10:54:50;;;;;;;16.90;15.70;;;17.60;87.60;;;;;;4963231;28;20457;-72
2022/03/12 10:57:20;;;;;;;18.50;17.20;;;17.30;88.10;;;;;;4987892;28;20791;-74
2022/03/12 10:59:47;;;;;;;16.47;15.57;;;17.00;89.20;;;;;;4986221;28;20976;-74
2022/03/12 11:02:15;;;;;;;17.57;16.57;;;16.80;90.10;;;;;;4973556;28;21536;-73
2022/03/12 11:04:42;;;;;;;17.13;16.10;;;17.00;89.50;;;;;;4965818;28;20490;-72
2022/03/12 11:07:24;;;;;;;16.37;15.27;;;17.00;89.50;;;;;;4962385;28;20455;-73
2022/03/12 11:09:51;;;;;;;16.17;15.17;;;17.40;89.20;;;;;;4981441;28;20473;-74
2022/03/12 11:12:29;;;;;;;17.67;16.07;;;17.80;88.30;;;;;;4995632;28;20488;-72
2022/03/12 11:15:05;;;;;;;16.67;15.50;;;17.80;88.10;;;;;;4968346;28;20851;-73
2022/03/12 11:17:43;;;;;;;17.40;16.10;;;18.10;88.20;;;;;;4963664;28;20784;-72
2022/03/12 11:20:17;;;;;;;17.33;15.70;;;18.10;85.70;;;;;;4964243;28;21571;-72
2022/03/12 11:22:44;;;;;;;16.63;15.83;;;17.90;86.20;;;;;;4964041;28;20471;-72
2022/03/12 11:25:19;;;;;;;18.17;16.30;;;17.90;85.40;;;;;;4962769;28;20506;-71
2022/03/12 11:27:50;;;;;;;17.10;16.17;;;17.90;85.60;;;;;;4963671;28;20476;-72
2022/03/12 11:30:21;;;;;;;16.10;15.20;;;18.00;86.40;;;;;;4962233;28;20501;-73
2022/03/12 11:32:52;;;;;;;16.27;15.37;;;18.10;85.60;;;;;;4962928;28;20470;-73
2022/03/12 11:35:20;;;;;;;17.67;16.10;;;18.50;84.50;;;;;;4963526;28;21047;-73
2022/03/12 11:37:47;;;;;;;17.80;16.60;;;19.20;82.70;;;;;;4963861;28;20585;-73
2022/03/12 11:40:19;;;;;;;17.63;16.40;;;19.50;81.40;;;;;;4962545;28;21309;-73
2022/03/12 11:42:48;;;;;;;17.23;16.23;;;19.50;79.90;;;;;;4963509;28;21175;-71
2022/03/12 11:45:16;;;;;;;17.23;16.07;;;19.00;80.90;;;;;;4963149;28;20513;-72
2022/03/12 11:47:44;;;;;;;17.40;16.30;;;19.10;80.50;;;;;;4964038;28;20473;-72
2022/03/12 11:50:15;;;;;;;17.73;16.53;;;19.70;79.60;;;;;;4960045;28;20965;-72
2022/03/12 11:52:43;;;;;;;17.27;16.07;;;19.40;79.30;;;;;;4960628;28;20862;-72
2022/03/12 11:55:17;;;;;;;16.90;16.00;;;19.30;79.40;;;;;;4961496;28;20490;-72
2022/03/12 11:57:45;;;;;;;17.40;16.30;;;19.00;78.70;;;;;;4962997;28;20706;-72
2022/03/12 12:00:20;;;;;;;17.70;16.50;;;18.90;79.20;;;;;;4960263;28;20489;-72
2022/03/12 12:02:47;;;;;;;17.67;16.47;;;18.70;80.50;;;;;;4960745;28;20473;-71
2022/03/12 12:05:17;;;;;;;18.23;17.03;;;18.50;80.00;;;;;;4963075;28;20804;-72
2022/03/12 12:07:48;;;;;;;16.90;15.90;;;18.50;80.00;;;;;;4963289;28;20870;-72
2022/03/12 12:10:18;;;;;;;17.77;16.57;;;18.70;79.90;;;;;;4962439;28;20494;-73
2022/03/12 12:12:47;;;;;;;17.10;16.10;;;18.60;79.80;;;;;;4963445;28;21166;-74
2022/03/12 12:15:19;;;;;;;16.80;15.70;;;19.00;78.30;;;;;;4963042;28;20475;-74
2022/03/12 12:17:46;;;;;;;16.40;15.40;;;19.20;78.00;;;;;;4962704;28;21064;-72
2022/03/12 12:20:15;;;;;;;16.97;15.50;;;19.20;78.80;;;;;;4963535;28;20458;-73
2022/03/12 12:22:43;;;;;;;15.70;14.70;;;19.40;78.60;;;;;;4963356;28;20469;-73
2022/03/12 12:25:10;;;;;;;15.33;14.37;;;19.60;76.10;;;;;;4962354;28;20493;-73
2022/03/12 12:27:43;;;;;;;15.77;14.87;;;19.90;76.50;;;;;;4960836;28;20497;-73
2022/03/12 12:30:15;;;;;;;15.13;14.23;;;20.10;75.90;;;;;;4967109;28;21504;-74
2022/03/12 12:32:48;;;;;;;15.63;14.83;;;20.30;75.10;;;;;;4966632;28;20466;-72
2022/03/12 12:35:17;;;;;;;16.40;15.20;;;20.90;74.60;;;;;;4966584;28;21405;-73
2022/03/12 12:37:53;;;;;;;16.17;15.10;;;20.60;73.10;;;;;;4964817;28;20486;-73
2022/03/12 12:40:31;;;;;;;16.63;15.23;;;21.20;72.30;;;;;;4965897;28;20466;-73